Time;durP1;ratioP1;P1;durP2;ratioP2;P2;SDS_P1;SDS_P2;PMS_P1;PMS_P2;Temp;Humidity;BMP_temperature;BMP_pressure;BME280_temperature;BME280_humidity;BME280_pressure;Samples;Min_cycle;Max_cycle;Signal;HPM_P1;HPM_P2
2022/01/04 00:00:11;;;;;;;24.90;10.57;;;7.60;99.90;;;5.64;89.38;99661.09;10388760;28;97990;-81
2022/01/04 00:05:14;;;;;;;21.37;10.40;;;7.60;99.90;;;5.71;90.38;99663.16;10383058;28;99201;-80
2022/01/04 00:10:21;;;;;;;17.50;8.53;;;7.60;99.90;;;5.73;90.07;99658.53;10394161;28;97996;-81
2022/01/04 00:15:26;;;;;;;31.90;13.10;;;7.60;99.90;;;5.76;90.39;99663.53;10386558;28;96582;-81
2022/01/04 00:20:29;;;;;;;23.60;12.77;;;7.70;99.90;;;5.80;90.84;99664.88;10380361;28;96933;-80
2022/01/04 00:25:32;;;;;;;20.03;8.63;;;7.70;99.90;;;5.83;90.95;99672.50;10366371;28;97152;-80
2022/01/04 00:30:38;;;;;;;12.10;5.70;;;7.70;99.90;;;5.88;91.06;99667.59;10377807;28;96791;-80
2022/01/04 00:35:41;;;;;;;7.80;3.37;;;7.80;99.90;;;6.00;91.15;99661.16;10377264;28;97360;-80
2022/01/04 00:40:46;;;;;;;12.03;4.43;;;7.90;99.90;;;6.12;90.84;99651.19;10380693;28;97025;-80
2022/01/04 00:45:49;;;;;;;6.47;3.00;;;8.00;99.90;;;6.21;90.03;99647.63;10393407;27;98532;-79
2022/01/04 00:50:54;;;;;;;4.10;2.20;;;8.00;99.90;;;6.24;89.77;99652.59;10381333;28;97084;-80
2022/01/04 00:55:56;;;;;;;4.53;2.03;;;8.10;99.90;;;6.25;89.07;99656.06;10386818;27;96974;-80
2022/01/04 01:00:59;;;;;;;5.13;2.40;;;8.10;99.90;;;6.25;89.01;99637.59;10380211;28;97306;-80
2022/01/04 01:06:04;;;;;;;4.73;2.37;;;8.20;99.90;;;6.25;88.61;99630.50;10392990;28;98307;-80
2022/01/04 01:11:08;;;;;;;3.47;1.73;;;8.20;99.90;;;6.26;88.75;99624.25;10383842;28;97090;-80
2022/01/04 01:16:11;;;;;;;5.20;2.60;;;8.20;99.90;;;6.24;88.73;99625.38;10382466;28;98491;-80
2022/01/04 01:21:15;;;;;;;5.93;2.70;;;8.20;99.90;;;6.22;88.83;99628.16;10382341;28;97869;-80
2022/01/04 01:26:18;;;;;;;7.77;3.50;;;8.20;99.90;;;6.20;89.10;99622.22;10383391;27;97538;-80
2022/01/04 01:31:21;;;;;;;6.27;3.40;;;8.10;99.90;;;6.20;89.28;99603.75;10361591;28;98297;-80
2022/01/04 01:36:27;;;;;;;8.07;3.50;;;8.10;99.90;;;6.18;89.04;99589.91;10383089;28;96750;-80
2022/01/04 01:41:29;;;;;;;10.20;3.73;;;8.10;99.90;;;6.15;89.13;99596.31;10379436;28;96864;-80
2022/01/04 01:46:33;;;;;;;4.60;2.27;;;8.10;99.90;;;6.11;89.12;99579.13;10379047;28;96648;-80
2022/01/04 01:51:36;;;;;;;5.00;2.20;;;8.10;99.90;;;6.05;88.91;99573.63;10370929;28;98491;-80
2022/01/04 01:56:39;;;;;;;4.67;2.60;;;8.00;99.90;;;6.02;89.44;99577.41;10369397;28;98351;-80
2022/01/04 02:01:42;;;;;;;6.03;3.20;;;8.00;99.90;;;6.00;89.72;99566.19;10380123;28;97140;-81
2022/01/04 02:06:46;;;;;;;8.17;3.23;;;7.90;99.90;;;5.97;89.85;99566.50;10394560;28;97125;-80
2022/01/04 02:11:50;;;;;;;6.47;2.50;;;7.90;99.90;;;5.90;89.81;99549.59;10386640;28;98778;-80
2022/01/04 02:16:53;;;;;;;5.40;2.80;;;7.80;99.90;;;5.85;89.54;99551.88;10381730;28;97336;-80
2022/01/04 02:21:56;;;;;;;5.23;3.00;;;7.80;99.90;;;5.79;89.76;99532.22;10381376;28;98886;-80
2022/01/04 02:27:00;;;;;;;5.33;2.23;;;7.80;99.90;;;5.74;89.69;99513.38;10371676;28;97284;-80
2022/01/04 02:32:04;;;;;;;4.80;2.80;;;7.80;99.90;;;5.62;89.63;99502.25;10367033;28;98498;-80
2022/01/04 02:37:12;;;;;;;12.23;5.83;;;7.70;99.90;;;5.52;89.50;99500.72;10387561;28;96603;-81
2022/01/04 02:42:18;;;;;;;22.77;10.73;;;7.60;99.90;;;5.48;90.08;99494.09;10395501;28;98213;-80
2022/01/04 02:47:21;;;;;;;25.77;11.70;;;7.50;99.90;;;5.54;90.35;99483.75;10391427;28;98539;-80
2022/01/04 02:52:27;;;;;;;18.50;9.83;;;7.50;99.90;;;5.64;90.70;99489.78;10384419;28;99673;-80
2022/01/04 02:57:30;;;;;;;14.33;8.13;;;7.60;99.90;;;5.78;90.58;99490.19;10366546;28;99302;-79
2022/01/04 03:02:34;;;;;;;15.93;8.37;;;7.60;99.90;;;5.95;90.19;99488.53;10383997;28;97146;-79
2022/01/04 03:07:38;;;;;;;12.73;6.40;;;7.70;99.90;;;6.01;89.67;99477.34;10403330;28;97105;-80
2022/01/04 03:12:43;;;;;;;14.23;8.13;;;7.80;99.90;;;6.04;89.40;99488.41;10378375;28;96842;-80
2022/01/04 03:17:46;;;;;;;16.77;8.87;;;7.90;99.90;;;6.04;89.04;99487.56;10382678;28;98384;-80
2022/01/04 03:22:48;;;;;;;17.73;9.67;;;7.90;99.90;;;6.02;88.96;99489.56;10389799;28;96733;-80
2022/01/04 03:27:51;;;;;;;11.07;6.50;;;7.90;99.90;;;5.94;88.77;99477.16;10392470;28;96934;-80
2022/01/04 03:32:54;;;;;;;16.77;9.60;;;7.90;99.90;;;5.86;88.94;99463.88;10383349;28;96998;-80
2022/01/04 03:37:57;;;;;;;19.07;10.60;;;7.80;99.90;;;5.80;89.25;99430.22;10379487;28;96644;-79
2022/01/04 03:43:00;;;;;;;22.03;12.60;;;7.70;99.90;;;5.70;89.17;99438.25;10398464;27;97884;-80
2022/01/04 03:48:04;;;;;;;20.17;11.80;;;7.70;99.90;;;5.55;89.10;99430.06;10404225;28;98297;-80
2022/01/04 03:53:07;;;;;;;14.37;8.33;;;7.50;99.90;;;5.37;89.22;99430.09;10416327;27;96764;-80
2022/01/04 03:58:13;;;;;;;20.17;11.70;;;7.40;99.90;;;5.25;89.64;99427.84;10391740;28;97018;-80
2022/01/04 04:03:19;;;;;;;18.83;11.40;;;7.30;99.90;;;5.16;90.24;99411.19;10410076;28;96759;-79
2022/01/04 04:08:26;;;;;;;21.77;12.23;;;7.20;99.90;;;5.08;90.75;99419.81;10395859;28;96562;-80
2022/01/04 04:13:28;;;;;;;22.17;12.40;;;7.10;99.90;;;5.06;91.55;99403.34;10400472;27;96631;-80
2022/01/04 04:18:31;;;;;;;23.60;12.37;;;7.00;99.90;;;5.03;91.59;99387.84;10402585;28;96627;-80
2022/01/04 04:23:34;;;;;;;19.73;10.40;;;7.00;99.90;;;5.04;91.94;99396.59;10403082;28;99273;-80
2022/01/04 04:28:40;;;;;;;16.53;9.43;;;7.00;99.90;;;5.17;92.09;99380.41;10388617;28;96621;-78
2022/01/04 04:33:43;;;;;;;18.57;11.17;;;7.00;99.90;;;5.17;91.80;99377.75;10406502;28;98235;-79
2022/01/04 04:38:48;;;;;;;19.37;10.87;;;7.10;99.90;;;5.10;91.50;99367.84;10392438;28;96724;-79
2022/01/04 04:43:54;;;;;;;13.57;8.20;;;7.00;99.90;;;5.01;91.34;99366.09;10407958;28;97181;-79
2022/01/04 04:48:59;;;;;;;15.23;8.30;;;7.00;99.90;;;4.90;91.60;99378.69;10408399;28;96823;-79
2022/01/04 04:54:02;;;;;;;19.60;10.57;;;6.90;99.90;;;4.82;92.00;99366.28;10396072;28;98449;-79
2022/01/04 04:59:06;;;;;;;29.30;13.50;;;6.80;99.90;;;4.86;92.55;99354.47;10386974;28;97638;-79
2022/01/04 05:04:10;;;;;;;22.40;11.43;;;6.80;99.90;;;4.80;92.27;99355.09;10368197;28;96885;-79
2022/01/04 05:09:13;;;;;;;16.23;8.40;;;6.80;99.90;;;4.71;92.04;99367.34;10393600;27;97299;-79
2022/01/04 05:14:17;;;;;;;19.00;10.50;;;6.70;99.90;;;4.56;92.33;99364.41;10387646;28;99613;-80
2022/01/04 05:19:20;;;;;;;18.57;10.60;;;6.60;99.90;;;4.45;92.61;99353.28;10390855;28;99078;-80
2022/01/04 05:24:23;;;;;;;19.13;10.43;;;6.50;99.90;;;4.37;93.10;99351.38;10382514;28;98077;-80
2022/01/04 05:29:28;;;;;;;19.97;10.67;;;6.40;99.90;;;4.33;93.41;99349.22;10385886;28;100065;-79
2022/01/04 05:34:32;;;;;;;21.20;11.07;;;6.30;99.90;;;4.20;93.64;99331.16;10365546;28;98784;-81
2022/01/04 05:39:35;;;;;;;19.47;11.40;;;6.30;99.90;;;4.19;94.32;99342.63;10383829;28;97604;-79
2022/01/04 05:44:39;;;;;;;20.87;11.00;;;6.20;99.90;;;4.13;94.53;99330.06;10383975;28;98281;-79
2022/01/04 05:49:42;;;;;;;36.03;16.50;;;6.20;99.90;;;4.07;94.82;99304.38;10380708;28;96560;-80
2022/01/04 05:54:46;;;;;;;35.73;17.20;;;6.10;99.90;;;4.11;95.17;99297.84;10375231;28;97205;-80
2022/01/04 05:59:49;;;;;;;25.77;14.63;;;6.10;99.90;;;4.10;95.34;99319.88;10376015;28;98402;-79
2022/01/04 06:04:52;;;;;;;22.33;12.47;;;6.10;99.90;;;4.06;95.66;99315.88;10380270;28;97716;-79
2022/01/04 06:09:55;;;;;;;21.17;12.10;;;6.00;99.90;;;3.95;95.36;99317.72;10389605;28;97328;-79
2022/01/04 06:15:03;;;;;;;23.83;13.10;;;6.00;99.90;;;3.82;95.10;99317.25;10396437;28;97070;-80
2022/01/04 06:20:09;;;;;;;18.63;10.60;;;5.90;99.90;;;3.82;95.78;99317.25;10400679;28;96699;-79
2022/01/04 06:25:16;;;;;;;95.77;49.03;;;5.80;99.90;;;4.03;97.11;99301.22;10389362;28;96759;-80
2022/01/04 06:30:22;;;;;;;49.60;26.70;;;6.00;99.90;;;4.38;97.85;99312.72;10387437;28;98440;-81
2022/01/04 06:35:27;;;;;;;71.20;40.50;;;6.10;99.90;;;4.69;98.14;99306.13;10389154;28;96655;-80
2022/01/04 06:40:30;;;;;;;37.37;26.07;;;6.40;99.90;;;4.93;97.67;99286.25;10384337;28;98021;-85
2022/01/04 06:45:33;;;;;;;29.77;19.93;;;6.60;99.90;;;5.09;97.28;99278.44;10384508;28;98400;-80
2022/01/04 06:50:36;;;;;;;22.53;15.27;;;6.80;99.90;;;5.23;96.56;99277.88;10372546;28;96666;-80
2022/01/04 06:55:39;;;;;;;18.90;10.00;;;7.00;99.90;;;5.37;95.91;99247.47;10380657;28;96801;-79
2022/01/04 07:00:42;;;;;;;14.53;9.03;;;7.10;99.90;;;5.53;94.67;99262.56;10389398;28;98431;-79
2022/01/04 07:05:46;;;;;;;11.77;7.50;;;7.20;99.90;;;5.73;93.84;99278.94;10382518;28;98818;-79
2022/01/04 07:10:49;;;;;;;12.67;7.77;;;7.30;99.90;;;5.94;92.89;99286.44;10377756;28;96956;-79
2022/01/04 07:15:52;;;;;;;12.07;7.27;;;7.50;99.90;;;6.08;91.45;99293.75;10377200;27;96839;-79
2022/01/04 07:20:58;;;;;;;15.43;9.63;;;7.60;99.90;;;6.21;90.82;99288.00;10375553;28;96679;-79
2022/01/04 07:26:01;;;;;;;31.93;22.90;;;7.80;99.90;;;6.46;89.94;99292.31;10384957;28;98143;-79
2022/01/04 07:31:04;;;;;;;20.63;12.83;;;7.90;99.90;;;6.59;88.63;99282.09;10377215;28;97008;-79
2022/01/04 07:36:08;;;;;;;22.17;13.17;;;8.10;99.90;;;6.40;87.13;99293.78;10391675;27;97737;-80
2022/01/04 07:41:11;;;;;;;23.40;13.87;;;8.00;99.90;;;6.13;87.02;99292.28;10380645;28;96805;-80
2022/01/04 07:46:14;;;;;;;26.83;14.90;;;7.90;99.90;;;5.87;86.81;99275.66;10385171;28;99707;-82
2022/01/04 07:51:20;;;;;;;23.97;13.70;;;7.70;99.90;;;5.60;87.27;99256.47;10382066;28;98333;-80
2022/01/04 07:56:22;;;;;;;25.10;13.40;;;7.50;99.90;;;5.35;87.64;99260.00;10381689;28;97674;-81
2022/01/04 08:01:27;;;;;;;18.07;10.80;;;7.30;99.90;;;5.30;88.70;99251.72;10387692;28;97305;-80
2022/01/04 08:06:31;;;;;;;24.07;12.57;;;7.20;99.90;;;5.75;89.90;99229.50;10392725;28;96676;-80
2022/01/04 08:11:34;;;;;;;21.97;13.17;;;7.30;99.90;;;6.03;88.77;99217.72;10385744;28;98242;-80
2022/01/04 08:16:37;;;;;;;19.23;10.93;;;7.40;99.90;;;6.04;87.99;99213.28;10386180;28;98110;-80
2022/01/04 08:21:40;;;;;;;19.03;10.40;;;7.60;99.90;;;6.02;88.00;99216.09;10384599;28;97667;-81
2022/01/04 08:26:45;;;;;;;19.50;11.83;;;7.60;99.90;;;6.15;88.62;99208.50;10387600;28;97838;-80
2022/01/04 08:31:49;;;;;;;17.93;11.43;;;7.70;99.90;;;6.29;88.19;99187.75;10389652;27;98059;-79
2022/01/04 08:36:52;;;;;;;17.00;10.27;;;7.90;99.90;;;6.34;87.75;99194.19;10387521;28;98196;-79
2022/01/04 08:41:59;;;;;;;16.47;10.37;;;8.00;99.90;;;6.44;88.03;99194.84;10381572;28;99331;-79
2022/01/04 08:47:03;;;;;;;18.77;11.37;;;8.10;99.90;;;6.62;87.82;99186.75;10362841;28;97755;-79
2022/01/04 08:52:07;;;;;;;24.03;13.03;;;8.20;99.90;;;6.76;87.41;99158.00;10392283;28;98265;-79
2022/01/04 08:57:10;;;;;;;12.97;9.47;;;8.40;99.90;;;6.87;86.92;99173.50;10384838;28;98994;-78
2022/01/04 09:02:13;;;;;;;14.70;8.23;;;8.50;99.90;;;7.05;86.72;99179.38;10391718;28;97375;-79
2022/01/04 09:07:17;;;;;;;15.07;10.83;;;8.70;99.90;;;7.29;86.24;99178.47;10396708;28;97011;-79
2022/01/04 09:12:28;;;;;;;9.23;5.60;;;8.90;99.90;;;7.52;85.56;99160.03;10402766;27;96642;-79
2022/01/04 09:22:54;;;;;;;;;;;9.30;99.90;;;7.76;83.79;99154.59;10392190;28;97086;-87
2022/01/04 09:27:57;;;;;;;9.80;5.63;;;9.40;99.90;;;8.01;83.32;99125.31;10378926;28;97329;-88
2022/01/04 09:33:05;;;;;;;18.10;8.80;;;9.60;99.90;;;8.32;82.09;99128.69;10393058;28;97331;-88
2022/01/04 09:38:09;;;;;;;9.33;5.40;;;9.80;99.90;;;8.70;81.27;99115.47;10391479;28;96786;-84
2022/01/04 09:43:12;;;;;;;8.23;5.93;;;10.10;99.90;;;9.08;79.55;99102.09;10339481;28;96657;-86
2022/01/04 09:48:15;;;;;;;10.30;5.50;;;10.50;99.90;;;9.22;77.92;99072.06;10305810;28;96867;-82
2022/01/04 09:53:22;;;;;;;6.43;4.13;;;10.70;99.90;;;9.24;76.77;99067.44;10313846;28;97322;-81
2022/01/04 09:58:26;;;;;;;12.00;7.20;;;10.80;99.90;;;9.27;76.82;99059.09;10338206;28;97712;-81
2022/01/04 10:03:31;;;;;;;8.00;5.60;;;10.90;99.90;;;9.32;76.85;99040.78;10332085;28;96914;-81
2022/01/04 10:08:52;;;;;;;7.47;4.70;;;11.00;99.90;;;9.33;76.42;99031.00;10330571;28;96690;-81
2022/01/04 10:13:58;;;;;;;7.60;4.50;;;11.00;99.90;;;9.30;75.87;99045.47;10343765;28;97688;-81
2022/01/04 10:19:01;;;;;;;25.00;9.17;;;11.00;99.90;;;9.32;75.55;99059.34;10323443;28;98663;-80
2022/01/04 10:24:06;;;;;;;7.40;4.20;;;11.00;99.90;;;9.43;74.57;99041.31;10343161;28;97145;-80
2022/01/04 10:29:20;;;;;;;8.57;5.43;;;11.10;99.90;;;9.51;74.79;99023.44;10320322;28;97411;-79
2022/01/04 10:34:24;;;;;;;7.47;4.27;;;11.20;99.90;;;9.65;74.56;99008.47;10315749;28;96750;-80
2022/01/04 10:39:29;;;;;;;6.70;3.63;;;11.30;99.90;;;9.87;74.98;98978.25;10349401;28;96675;-79
2022/01/04 10:44:32;;;;;;;7.47;3.97;;;11.50;99.90;;;10.07;73.74;98988.16;10371086;28;97387;-80
2022/01/04 10:49:41;;;;;;;10.17;4.20;;;11.60;99.90;;;10.26;72.36;98973.44;10395982;28;97127;-79
2022/01/04 10:54:44;;;;;;;9.73;4.97;;;11.80;99.90;;;10.26;72.02;98976.91;10375533;28;97481;-80
2022/01/04 10:59:47;;;;;;;7.33;4.73;;;11.80;99.90;;;10.21;71.45;98976.63;10361788;28;97274;-80
2022/01/04 11:05:14;;;;;;;6.07;3.77;;;11.90;99.90;;;10.09;72.14;98962.28;10370453;28;97563;-79
2022/01/04 11:10:17;;;;;;;7.07;4.10;;;11.70;99.90;;;10.03;72.14;98947.13;10390002;28;97274;-79
2022/01/04 11:15:20;;;;;;;8.13;4.33;;;11.70;99.90;;;9.89;72.53;98946.19;10352370;28;96792;-79
2022/01/04 11:20:24;;;;;;;11.20;4.87;;;11.60;99.90;;;9.77;73.60;98937.13;10355086;28;97381;-79
2022/01/04 11:25:28;;;;;;;9.40;5.63;;;11.50;99.90;;;9.68;73.89;98917.91;10362360;28;98311;-79
2022/01/04 11:30:31;;;;;;;6.30;3.80;;;11.40;99.90;;;9.59;74.14;98909.25;10380468;28;98788;-80
2022/01/04 11:35:39;;;;;;;5.67;4.00;;;11.30;99.90;;;9.53;74.94;98899.41;10388195;28;98527;-79
2022/01/04 11:40:42;;;;;;;10.73;6.10;;;11.20;99.90;;;9.50;75.18;98889.22;10361535;28;98718;-79
2022/01/04 11:45:48;;;;;;;8.43;4.43;;;11.20;99.90;;;9.46;75.20;98882.66;10368450;28;98630;-80
2022/01/04 11:50:55;;;;;;;6.07;3.80;;;11.20;99.90;;;9.41;75.01;98886.88;10366534;28;97359;-80
2022/01/04 11:56:09;;;;;;;7.43;4.43;;;11.10;99.90;;;9.42;75.12;98870.00;10371047;28;97602;-80
2022/01/04 12:01:27;;;;;;;6.33;3.80;;;11.10;99.90;;;9.47;75.35;98875.50;10372500;28;98322;-79
2022/01/04 12:06:42;;;;;;;7.00;3.90;;;11.10;99.90;;;9.52;75.35;98881.06;10376552;28;97630;-79
2022/01/04 12:11:46;;;;;;;6.80;4.10;;;11.20;99.90;;;9.54;75.08;98860.50;10367060;28;97701;-79
2022/01/04 12:17:02;;;;;;;12.23;6.80;;;11.20;99.90;;;9.58;75.42;98869.69;10382248;28;98452;-80
2022/01/04 12:22:05;;;;;;;10.83;6.50;;;11.20;99.90;;;9.61;75.03;98861.34;10383865;28;98239;-80
2022/01/04 12:27:15;;;;;;;19.90;12.47;;;11.30;99.90;;;9.59;75.17;98869.47;10399214;28;97052;-79
2022/01/04 12:32:23;;;;;;;15.40;9.43;;;11.20;99.90;;;9.58;75.06;98854.56;10359663;28;97219;-78
2022/01/04 12:37:26;;;;;;;18.87;13.07;;;11.20;99.90;;;9.63;75.67;98846.03;10369364;28;98301;-78
2022/01/04 12:42:30;;;;;;;10.50;6.20;;;11.30;99.90;;;9.69;75.00;98853.22;10396745;28;96820;-78
2022/01/04 12:47:33;;;;;;;10.87;8.97;;;11.30;99.90;;;9.77;74.88;98828.38;10387540;28;97869;-79
2022/01/04 12:52:35;;;;;;;16.67;11.77;;;11.40;99.90;;;9.87;74.97;98823.53;10380894;28;97957;-78
2022/01/04 12:57:38;;;;;;;13.93;7.53;;;11.50;99.90;;;10.04;74.88;98795.66;10385268;28;98486;-80
2022/01/04 13:02:41;;;;;;;7.83;4.97;;;11.60;99.90;;;10.17;73.72;98787.72;10377609;28;97179;-78
2022/01/04 13:07:45;;;;;;;23.67;13.93;;;11.80;99.90;;;10.29;73.11;98806.56;10378196;28;98873;-79
2022/01/04 13:12:51;;;;;;;9.90;6.40;;;11.90;99.90;;;10.33;73.24;98801.69;10382505;28;96872;-78
2022/01/04 13:17:55;;;;;;;10.40;6.13;;;11.90;99.90;;;10.30;72.67;98776.34;10380299;28;96934;-81
2022/01/04 13:23:08;;;;;;;12.00;7.50;;;12.00;99.90;;;10.31;72.85;98777.97;10397500;28;96603;-81
2022/01/04 13:28:11;;;;;;;5.73;3.77;;;11.90;99.90;;;10.32;72.84;98771.69;10363886;28;97282;-81
2022/01/04 13:33:22;;;;;;;9.80;5.00;;;12.00;99.90;;;10.32;72.33;98766.38;10370910;28;98204;-81
2022/01/04 13:38:27;;;;;;;22.50;10.37;;;12.00;99.90;;;10.31;72.06;98764.69;10374166;28;97647;-80
2022/01/04 13:43:45;;;;;;;58.47;25.23;;;12.00;99.90;;;10.29;72.18;98752.66;10364135;28;98540;-80
2022/01/04 13:48:52;;;;;;;25.47;11.30;;;12.00;99.90;;;10.29;71.84;98760.63;10362206;28;98074;-80
2022/01/04 13:53:59;;;;;;;17.30;8.83;;;11.90;99.90;;;10.30;71.54;98767.56;10371033;28;97769;-80
2022/01/04 13:59:02;;;;;;;10.40;7.83;;;11.90;99.90;;;10.31;71.82;98759.38;10395104;28;98432;-80
2022/01/04 14:04:08;;;;;;;6.67;3.40;;;11.90;99.90;;;10.32;71.75;98737.16;10378032;28;97671;-80
2022/01/04 14:09:33;;;;;;;6.43;3.60;;;12.00;99.90;;;10.35;71.76;98742.06;10388323;28;96736;-80
2022/01/04 14:14:54;;;;;;;7.20;4.10;;;12.00;99.90;;;10.37;72.00;98729.38;10365066;28;96737;-80
2022/01/04 14:20:09;;;;;;;8.67;4.17;;;12.00;99.90;;;10.36;72.00;98748.19;10374524;28;98398;-81
2022/01/04 14:25:14;;;;;;;4.90;2.83;;;12.00;99.90;;;10.37;71.83;98731.22;10353459;28;98238;-80
2022/01/04 14:30:24;;;;;;;6.70;3.00;;;12.00;99.90;;;10.37;71.75;98724.06;10379821;28;100324;-81
2022/01/04 14:35:31;;;;;;;6.07;3.10;;;12.00;99.90;;;10.34;72.17;98711.22;10380328;28;97973;-81
2022/01/04 14:40:34;;;;;;;7.40;4.37;;;12.00;99.90;;;10.31;72.26;98703.63;10361344;28;96620;-80
2022/01/04 14:45:38;;;;;;;4.83;3.10;;;12.00;99.90;;;10.27;72.31;98701.59;10390129;28;99269;-80
2022/01/04 14:50:41;;;;;;;9.23;5.43;;;11.90;99.90;;;10.24;72.46;98720.59;10375552;28;97317;-80
2022/01/04 14:55:44;;;;;;;6.07;3.43;;;11.90;99.90;;;10.26;72.37;98724.69;10377286;28;97209;-79
2022/01/04 15:01:04;;;;;;;8.93;4.47;;;11.90;99.90;;;10.26;72.50;98732.66;10364087;28;97218;-81
2022/01/04 15:06:08;;;;;;;18.57;8.90;;;11.90;99.90;;;10.27;72.28;98723.66;10367086;28;98227;-82
2022/01/04 15:11:11;;;;;;;23.80;14.40;;;11.90;99.90;;;10.27;72.64;98736.13;10361944;28;97850;-81
2022/01/04 15:16:14;;;;;;;9.97;5.10;;;11.90;99.90;;;10.28;73.21;98709.38;10385293;28;98554;-81
2022/01/04 15:21:19;;;;;;;10.07;4.73;;;12.00;99.90;;;10.24;73.79;98707.31;10362305;28;96763;-82
2022/01/04 15:26:37;;;;;;;6.60;3.63;;;11.90;99.90;;;10.14;74.69;98673.19;10367063;28;98665;-79
2022/01/04 15:31:42;;;;;;;8.43;4.73;;;11.90;99.90;;;10.02;75.22;98648.25;10367028;27;98714;-79
2022/01/04 15:36:45;;;;;;;9.83;6.20;;;11.70;99.90;;;9.93;75.57;98637.81;10374201;28;97957;-79
2022/01/04 15:41:52;;;;;;;11.60;5.60;;;11.60;99.90;;;9.91;75.38;98653.13;10362364;28;96831;-79
2022/01/04 15:46:55;;;;;;;6.80;4.07;;;11.60;99.90;;;9.88;75.62;98650.84;10372794;28;97680;-79
2022/01/04 15:51:58;;;;;;;6.13;3.80;;;11.60;99.90;;;9.95;75.19;98620.88;10367849;28;99098;-79
2022/01/04 15:57:01;;;;;;;8.30;4.27;;;11.60;99.90;;;9.95;74.77;98623.53;10378614;28;98089;-78
2022/01/04 16:02:07;;;;;;;5.33;3.30;;;11.60;99.90;;;9.97;74.46;98646.19;10363787;28;98165;-78
2022/01/04 16:07:11;;;;;;;5.10;3.53;;;11.60;99.90;;;9.99;74.16;98624.75;10372046;28;98535;-78
2022/01/04 16:12:13;;;;;;;4.90;2.63;;;11.60;99.90;;;10.03;74.05;98620.69;10384317;28;97042;-78
2022/01/04 16:22:20;;;;;;;4.93;3.00;;;11.70;99.90;;;10.07;73.74;98619.25;10365343;28;96956;-78
2022/01/04 16:27:27;;;;;;;6.40;2.80;;;11.70;99.90;;;10.09;73.38;98628.66;10361286;28;96694;-79
2022/01/04 16:32:30;;;;;;;6.47;2.97;;;11.70;99.90;;;10.08;73.70;98627.03;10393549;28;96903;-78
2022/01/04 16:37:34;;;;;;;6.23;2.87;;;11.70;99.90;;;10.07;73.54;98620.06;10362535;28;98274;-78
2022/01/04 16:42:38;;;;;;;5.90;3.17;;;11.70;99.90;;;10.09;73.68;98618.03;10363706;28;96782;-79
2022/01/04 16:47:42;;;;;;;3.90;2.50;;;11.70;99.90;;;10.08;73.95;98621.72;10366517;28;98265;-79
2022/01/04 16:52:52;;;;;;;4.67;2.80;;;11.70;99.90;;;10.11;73.89;98637.22;10358065;28;96739;-78
2022/01/04 16:57:55;;;;;;;7.77;4.07;;;11.70;99.90;;;10.12;73.98;98627.41;10391003;28;98600;-83
2022/01/04 17:02:58;;;;;;;5.57;3.23;;;11.70;99.90;;;10.10;74.09;98622.31;10370703;28;97924;-79
2022/01/04 17:08:01;;;;;;;4.47;3.00;;;11.70;99.90;;;10.12;74.09;98633.53;10365276;28;97043;-83
2022/01/04 17:18:26;;;;;;;5.22;3.20;;;11.70;99.90;;;10.12;74.54;98622.94;10376930;28;98562;-80
2022/01/04 17:23:30;;;;;;;5.40;3.07;;;11.80;99.90;;;10.13;74.49;98619.25;10395437;28;97085;-79
2022/01/04 17:28:33;;;;;;;9.50;3.83;;;11.80;99.90;;;10.15;74.53;98611.09;10373629;28;97265;-79
2022/01/04 17:33:39;;;;;;;5.53;2.70;;;11.80;99.90;;;10.17;74.49;98612.53;10366733;28;97093;-79
2022/01/04 17:38:42;;;;;;;4.23;2.93;;;11.80;99.90;;;10.17;74.42;98604.56;10367128;28;96604;-80
2022/01/04 17:43:45;;;;;;;4.57;3.17;;;11.80;99.90;;;10.12;74.72;98585.78;10369753;28;97403;-80
2022/01/04 17:48:48;;;;;;;7.70;5.10;;;11.80;99.90;;;10.14;74.85;98601.50;10372115;28;96622;-80
2022/01/04 17:53:51;;;;;;;6.87;3.60;;;11.80;99.90;;;10.11;74.50;98594.75;10365838;28;99351;-80
2022/01/04 17:59:00;;;;;;;4.97;2.87;;;11.70;99.90;;;10.05;74.89;98590.25;10383620;27;97507;-80
2022/01/04 18:04:04;;;;;;;6.10;3.83;;;11.70;99.90;;;10.03;75.26;98583.53;10343063;28;98298;-79
2022/01/04 18:09:07;;;;;;;4.97;2.90;;;11.70;99.90;;;10.10;75.12;98585.16;10369217;28;102049;-79
2022/01/04 18:14:11;;;;;;;5.30;2.53;;;11.70;99.90;;;10.14;74.71;98590.91;10385491;28;96667;-78
2022/01/04 18:19:16;;;;;;;5.27;2.53;;;11.70;99.90;;;10.25;74.16;98602.75;10377481;28;97110;-80
2022/01/04 18:24:21;;;;;;;5.07;2.50;;;11.80;99.90;;;10.30;73.89;98590.50;10360724;28;98658;-80
2022/01/04 18:29:24;;;;;;;4.23;2.70;;;11.90;99.90;;;10.39;73.44;98593.78;10358027;28;100137;-81
2022/01/04 18:34:28;;;;;;;7.33;3.53;;;12.00;99.90;;;10.48;73.05;98612.97;10364015;28;97640;-79
2022/01/04 18:39:32;;;;;;;4.13;2.30;;;12.00;99.90;;;10.60;72.24;98601.50;10379695;28;98566;-78
2022/01/04 18:44:37;;;;;;;6.20;2.37;;;12.20;99.90;;;10.65;71.94;98577.78;10349112;28;97597;-79
2022/01/04 18:49:40;;;;;;;3.77;2.03;;;12.20;99.90;;;10.71;71.80;98589.44;10370789;28;97571;-79
2022/01/04 18:54:43;;;;;;;4.67;2.07;;;12.30;99.90;;;10.77;71.34;98593.91;10380114;28;97001;-79
2022/01/04 18:59:46;;;;;;;5.33;1.90;;;12.30;99.90;;;10.82;71.32;98569.38;10373834;28;96723;-78
2022/01/04 19:04:49;;;;;;;5.73;1.87;;;12.40;99.90;;;10.86;71.09;98568.75;10370981;28;98152;-79
2022/01/04 19:09:55;;;;;;;6.00;2.43;;;12.40;99.90;;;10.88;70.82;98582.63;10366712;28;98212;-78
2022/01/04 19:14:57;;;;;;;5.07;2.50;;;12.40;99.90;;;10.95;70.38;98583.44;10372237;28;98396;-77
2022/01/04 19:20:01;;;;;;;4.33;2.20;;;12.50;99.90;;;10.97;70.51;98567.25;10376294;28;96739;-78
2022/01/04 19:25:13;;;;;;;5.00;2.63;;;12.50;99.90;;;10.95;70.42;98569.31;10350092;27;98207;-78
2022/01/04 19:30:18;;;;;;;4.03;2.50;;;12.50;99.90;;;10.99;70.30;98576.69;10358334;28;98441;-79
2022/01/04 19:40:44;;;;;;;5.13;2.13;;;12.60;99.90;;;10.96;70.74;98574.44;10368457;28;97193;-78
2022/01/04 19:45:51;;;;;;;4.37;2.23;;;12.50;99.90;;;10.94;70.67;98563.19;10369463;28;98615;-78
2022/01/04 19:50:59;;;;;;;5.30;2.73;;;12.50;99.90;;;10.92;70.77;98575.88;10363456;28;98850;-78
2022/01/04 19:56:03;;;;;;;6.43;2.53;;;12.50;99.90;;;10.93;70.85;98555.44;10367100;28;98585;-80
2022/01/04 20:01:06;;;;;;;4.50;2.30;;;12.50;99.90;;;10.94;70.77;98563.19;10348890;28;97534;-79
2022/01/04 20:06:12;;;;;;;5.27;2.43;;;12.50;99.90;;;10.90;70.94;98567.28;10363952;28;98021;-79
2022/01/04 20:11:17;;;;;;;3.50;2.10;;;12.50;99.90;;;10.86;71.39;98562.63;10364211;28;97852;-79
2022/01/04 20:16:22;;;;;;;4.53;2.10;;;12.50;99.90;;;10.82;71.56;98559.56;10355755;28;98494;-80
2022/01/04 20:21:26;;;;;;;3.50;2.10;;;12.40;99.90;;;10.80;71.46;98539.56;10345280;28;97375;-79
2022/01/04 20:26:29;;;;;;;3.50;1.93;;;12.40;99.90;;;10.78;71.36;98526.44;10368536;28;97467;-78
2022/01/04 20:31:35;;;;;;;6.40;2.20;;;12.40;99.90;;;10.79;71.42;98521.94;10364346;27;98598;-79
2022/01/04 20:36:38;;;;;;;6.37;2.90;;;12.30;99.90;;;10.77;71.38;98516.84;10383114;28;100366;-80
2022/01/04 20:41:41;;;;;;;5.43;2.47;;;12.40;99.90;;;10.74;71.46;98504.00;10354887;28;98683;-79
2022/01/04 20:46:44;;;;;;;3.57;1.80;;;12.30;99.90;;;10.73;70.71;98502.34;10364646;28;97538;-78
2022/01/04 20:51:47;;;;;;;4.13;2.00;;;12.30;99.90;;;10.72;70.61;98500.72;10363387;28;98169;-79
2022/01/04 20:56:50;;;;;;;3.77;1.90;;;12.30;99.90;;;10.67;71.13;98513.81;10370685;28;98810;-79
2022/01/04 21:01:56;;;;;;;4.20;2.27;;;12.30;99.90;;;10.59;71.18;98508.75;10383463;28;98371;-80
2022/01/04 21:07:03;;;;;;;3.13;1.70;;;12.20;99.90;;;10.50;71.27;98537.38;10367254;28;98384;-79
2022/01/04 21:12:07;;;;;;;3.40;1.80;;;12.20;99.90;;;10.49;71.26;98521.63;10358038;28;98126;-79
2022/01/04 21:17:09;;;;;;;4.37;2.33;;;12.20;99.90;;;10.45;71.09;98538.00;10380182;28;98637;-79
2022/01/04 21:22:12;;;;;;;6.50;3.47;;;12.10;99.90;;;10.38;71.77;98558.44;10385211;28;99727;-79
2022/01/04 21:27:16;;;;;;;5.67;2.70;;;12.10;99.90;;;10.26;72.28;98560.09;10361860;28;97232;-79
2022/01/04 21:32:20;;;;;;;3.77;2.17;;;12.00;99.90;;;10.19;72.94;98560.06;10376101;28;97980;-82